createdAt,value
2018-03-15T00:01:07.449Z,20.20
2018-03-15T00:03:34.844Z,20.87
2018-03-15T00:06:02.229Z,21.57
2018-03-15T00:08:29.640Z,22.30
2018-03-15T00:10:57.026Z,21.70
2018-03-15T00:13:24.417Z,21.60
2018-03-15T00:15:51.822Z,22.27
2018-03-15T00:18:19.195Z,21.33
2018-03-15T00:20:46.595Z,21.17
2018-03-15T00:23:13.980Z,22.40
2018-03-15T00:25:41.361Z,21.13
2018-03-15T00:28:08.754Z,22.33
2018-03-15T00:30:36.146Z,21.40
2018-03-15T00:33:03.521Z,22.67
2018-03-15T00:35:30.978Z,21.73
2018-03-15T00:37:58.348Z,21.47
2018-03-15T00:40:25.729Z,22.00
2018-03-15T00:42:53.122Z,22.10
2018-03-15T00:45:20.502Z,22.53
2018-03-15T00:47:47.889Z,22.30
2018-03-15T00:50:15.293Z,21.33
2018-03-15T00:52:42.673Z,23.83
2018-03-15T00:55:10.057Z,21.90
2018-03-15T00:57:37.488Z,23.37
2018-03-15T01:00:05.000Z,22.90
2018-03-15T01:02:32.373Z,22.63
2018-03-15T01:05:02.521Z,21.90
2018-03-15T01:07:29.925Z,22.67
2018-03-15T01:09:57.329Z,23.30
2018-03-15T01:12:24.722Z,24.27
2018-03-15T01:14:52.105Z,22.70
2018-03-15T01:17:19.489Z,23.93
2018-03-15T01:19:46.870Z,23.00
2018-03-15T01:22:14.249Z,21.90
2018-03-15T01:24:41.641Z,22.87
2018-03-15T01:27:09.026Z,23.10
2018-03-15T01:29:36.409Z,23.17
2018-03-15T01:32:03.793Z,22.80
2018-03-15T01:34:31.205Z,22.50
2018-03-15T01:36:58.597Z,22.80
2018-03-15T01:39:25.977Z,23.00
2018-03-15T01:41:53.373Z,23.20
2018-03-15T01:44:20.756Z,22.77
2018-03-15T01:46:48.152Z,23.17
2018-03-15T01:49:15.553Z,22.43
2018-03-15T01:51:42.938Z,22.37
2018-03-15T01:54:10.333Z,23.10
2018-03-15T01:56:37.713Z,23.60
2018-03-15T01:59:05.098Z,23.87
2018-03-15T02:01:32.505Z,23.53
2018-03-15T02:03:59.889Z,22.83
2018-03-15T02:06:27.268Z,23.40
2018-03-15T02:08:54.662Z,21.20
2018-03-15T02:11:22.061Z,23.80
2018-03-15T02:13:49.457Z,23.37
2018-03-15T02:16:16.842Z,22.53
2018-03-15T02:18:44.224Z,22.00
2018-03-15T02:21:11.616Z,22.03
2018-03-15T02:23:39.006Z,21.00
2018-03-15T02:26:06.413Z,21.77
2018-03-15T02:28:33.794Z,21.00
2018-03-15T02:31:01.193Z,21.37
2018-03-15T02:33:28.590Z,22.00
2018-03-15T02:35:55.980Z,21.50
2018-03-15T02:38:23.369Z,21.80
2018-03-15T02:40:50.761Z,21.57
2018-03-15T02:43:18.144Z,20.03
2018-03-15T02:45:45.538Z,22.07
2018-03-15T02:48:12.921Z,21.73
2018-03-15T02:50:40.348Z,20.20
2018-03-15T02:53:07.751Z,20.50
2018-03-15T02:55:35.126Z,19.90
2018-03-15T02:58:02.548Z,22.07
2018-03-15T03:00:29.937Z,19.97
2018-03-15T03:02:57.344Z,21.50
2018-03-15T03:05:24.722Z,19.60
2018-03-15T03:07:52.102Z,20.53
2018-03-15T03:10:19.493Z,20.20
2018-03-15T03:12:46.878Z,21.93
2018-03-15T03:15:14.269Z,19.73
2018-03-15T03:17:41.653Z,20.87
2018-03-15T03:20:09.037Z,21.40
2018-03-15T03:22:36.440Z,20.12
2018-03-15T03:25:03.824Z,20.13
2018-03-15T03:27:31.237Z,20.45
2018-03-15T03:29:58.614Z,21.00
2018-03-15T03:32:25.998Z,20.10
2018-03-15T03:34:53.380Z,21.03
2018-03-15T03:37:20.779Z,20.17
2018-03-15T03:39:48.174Z,20.10
2018-03-15T03:42:15.565Z,20.00
2018-03-15T03:44:42.937Z,18.87
2018-03-15T03:47:10.326Z,20.13
2018-03-15T03:49:37.710Z,19.50
2018-03-15T03:52:05.117Z,19.67
2018-03-15T03:54:32.501Z,19.20
2018-03-15T03:56:59.885Z,18.80
2018-03-15T03:59:27.273Z,19.77
2018-03-15T04:01:54.654Z,18.80
2018-03-15T04:04:22.054Z,18.83
2018-03-15T04:06:49.462Z,19.10
2018-03-15T04:09:16.861Z,18.70
2018-03-15T04:11:44.264Z,18.63
2018-03-15T04:14:11.652Z,19.03
2018-03-15T04:16:39.056Z,18.67
2018-03-15T04:19:06.466Z,18.93
2018-03-15T04:21:33.876Z,19.63
2018-03-15T04:24:01.557Z,19.50
2018-03-15T04:26:28.957Z,18.23
2018-03-15T04:28:56.366Z,17.60
2018-03-15T04:31:23.749Z,18.47
2018-03-15T04:33:51.153Z,16.95
2018-03-15T04:36:18.540Z,18.10
2018-03-15T04:38:45.948Z,18.37
2018-03-15T04:41:13.368Z,18.50
2018-03-15T04:43:40.772Z,19.63
2018-03-15T04:46:08.172Z,17.77
2018-03-15T04:48:35.583Z,18.00
2018-03-15T04:51:02.981Z,17.37
2018-03-15T04:53:30.425Z,18.83
2018-03-15T04:55:57.814Z,19.63
2018-03-15T04:58:25.208Z,18.13
2018-03-15T05:00:52.598Z,18.67
2018-03-15T05:03:20.012Z,17.60
2018-03-15T05:05:47.405Z,18.10
2018-03-15T05:08:14.790Z,18.47
2018-03-15T05:10:42.208Z,18.30
2018-03-15T05:13:09.615Z,17.07
2018-03-15T05:15:37.017Z,16.87
2018-03-15T05:18:04.413Z,16.53
2018-03-15T05:20:31.809Z,16.73
2018-03-15T05:22:59.204Z,17.23
2018-03-15T05:25:26.587Z,17.67
2018-03-15T05:27:53.968Z,17.00
2018-03-15T05:30:21.409Z,16.90
2018-03-15T05:32:48.816Z,17.57
2018-03-15T05:35:16.189Z,17.07
2018-03-15T05:37:45.550Z,17.10
2018-03-15T05:40:12.924Z,17.30
2018-03-15T05:42:40.322Z,17.20
2018-03-15T05:45:07.705Z,16.07
2018-03-15T05:47:35.122Z,16.83
2018-03-15T05:50:02.501Z,16.50
2018-03-15T05:52:29.953Z,15.97
2018-03-15T05:54:58.529Z,16.70
2018-03-15T05:57:25.929Z,17.10
2018-03-15T05:59:53.701Z,16.50
2018-03-15T06:02:22.109Z,17.40
2018-03-15T06:04:49.563Z,16.00
2018-03-15T06:07:16.976Z,16.20
2018-03-15T06:09:44.357Z,16.47
2018-03-15T06:12:11.754Z,17.17
2018-03-15T06:14:39.150Z,15.87
2018-03-15T06:17:06.537Z,17.00
2018-03-15T06:19:33.958Z,15.95
2018-03-15T06:22:01.349Z,16.60
2018-03-15T06:24:28.737Z,16.23
2018-03-15T06:26:56.125Z,15.93
2018-03-15T06:29:23.505Z,15.00
2018-03-15T06:31:50.906Z,15.63
2018-03-15T06:34:18.293Z,17.63
2018-03-15T06:36:45.677Z,15.20
2018-03-15T06:39:13.069Z,18.30
2018-03-15T06:41:40.458Z,16.17
2018-03-15T06:44:07.852Z,16.50
2018-03-15T06:46:35.245Z,17.03
2018-03-15T06:49:02.637Z,17.90
2018-03-15T06:51:30.040Z,17.40
2018-03-15T06:53:57.416Z,16.67
2018-03-15T06:56:24.813Z,16.83
2018-03-15T06:58:52.202Z,17.53
2018-03-15T07:01:19.580Z,18.17
2018-03-15T07:03:46.983Z,17.43
2018-03-15T07:06:14.370Z,17.10
2018-03-15T07:08:42.611Z,17.03
2018-03-15T07:11:09.990Z,17.80
2018-03-15T07:13:37.373Z,16.20
2018-03-15T07:16:04.764Z,16.10
2018-03-15T07:18:32.256Z,16.43
2018-03-15T07:20:59.653Z,17.47
2018-03-15T07:23:27.037Z,16.77
2018-03-15T07:25:54.422Z,16.00
2018-03-15T07:28:21.814Z,17.93
2018-03-15T07:30:49.200Z,16.07
2018-03-15T07:33:16.614Z,17.17
2018-03-15T07:35:44.006Z,18.00
2018-03-15T07:38:11.386Z,17.03
2018-03-15T07:40:38.777Z,18.70
2018-03-15T07:43:06.179Z,17.30
2018-03-15T07:45:33.562Z,16.80
2018-03-15T07:48:00.949Z,18.30
2018-03-15T07:50:28.325Z,17.77
2018-03-15T07:52:55.714Z,17.30
2018-03-15T07:55:23.306Z,18.20
2018-03-15T07:57:50.714Z,17.60
2018-03-15T08:00:18.100Z,16.93
2018-03-15T08:02:45.495Z,18.13
2018-03-15T08:05:12.877Z,17.23
2018-03-15T08:07:40.265Z,17.67
2018-03-15T08:10:07.657Z,17.23
2018-03-15T08:12:35.044Z,17.30
2018-03-15T08:15:02.427Z,17.60
2018-03-15T08:17:29.822Z,18.00
2018-03-15T08:19:57.223Z,16.93
2018-03-15T08:22:25.415Z,15.83
2018-03-15T08:24:54.391Z,17.63
2018-03-15T08:27:23.984Z,17.07
2018-03-15T08:29:54.564Z,18.80
2018-03-15T08:32:21.978Z,17.60
2018-03-15T08:34:50.413Z,16.80
2018-03-15T08:37:17.800Z,17.13
2018-03-15T08:39:45.270Z,17.33
2018-03-15T08:42:12.663Z,16.30
2018-03-15T08:44:41.004Z,15.90
2018-03-15T08:47:08.410Z,17.10
2018-03-15T08:49:35.797Z,17.20
2018-03-15T08:52:03.184Z,17.30
2018-03-15T08:54:30.574Z,15.63
2018-03-15T08:56:57.995Z,16.80
2018-03-15T08:59:25.380Z,16.53
2018-03-15T09:01:52.753Z,16.20
2018-03-15T09:04:20.153Z,15.77
2018-03-15T09:06:47.552Z,16.40
2018-03-15T09:09:14.986Z,15.20
2018-03-15T09:11:42.341Z,15.80
2018-03-15T09:14:09.738Z,15.53
2018-03-15T09:16:37.126Z,16.17
2018-03-15T09:19:04.522Z,16.10
2018-03-15T09:21:31.961Z,14.87
2018-03-15T09:23:59.314Z,15.93
2018-03-15T09:26:26.718Z,14.70
2018-03-15T09:28:54.101Z,15.80
2018-03-15T09:31:21.501Z,15.30
2018-03-15T09:33:48.898Z,15.20
2018-03-15T09:36:16.297Z,16.53
2018-03-15T09:38:43.683Z,15.20
2018-03-15T09:41:11.070Z,14.40
2018-03-15T09:43:38.466Z,15.40
2018-03-15T09:46:05.883Z,14.77
2018-03-15T09:48:33.262Z,15.20
2018-03-15T09:51:00.661Z,16.33
2018-03-15T09:53:28.055Z,15.27
2018-03-15T09:55:55.834Z,15.50
2018-03-15T09:58:23.243Z,16.33
2018-03-15T10:00:51.014Z,15.80
2018-03-15T10:03:18.409Z,15.60
2018-03-15T10:05:45.854Z,14.60
2018-03-15T10:08:13.212Z,14.80
2018-03-15T10:10:40.602Z,14.17
2018-03-15T10:13:08.001Z,15.10
2018-03-15T10:15:35.399Z,14.90
2018-03-15T10:18:02.785Z,15.37
2018-03-15T10:20:30.182Z,15.10
2018-03-15T10:22:57.574Z,14.73
2018-03-15T10:25:26.392Z,14.90
2018-03-15T10:27:52.354Z,15.10
2018-03-15T10:30:19.766Z,14.40
2018-03-15T10:35:47.451Z,14.30
2018-03-15T10:38:14.842Z,14.67
2018-03-15T10:40:42.249Z,14.97
2018-03-15T10:43:09.637Z,14.70
2018-03-15T10:45:37.066Z,14.57
2018-03-15T10:48:04.519Z,14.10
2018-03-15T10:50:31.881Z,15.30
2018-03-15T10:52:59.315Z,14.40
2018-03-15T10:55:26.728Z,14.30
2018-03-15T10:57:54.460Z,14.77
2018-03-15T11:03:27.064Z,14.50
2018-03-15T11:06:01.016Z,14.37
2018-03-15T11:08:35.855Z,12.40
2018-03-15T11:11:03.286Z,13.70
2018-03-15T11:13:30.768Z,13.00
2018-03-15T11:15:58.434Z,13.93
2018-03-15T11:18:25.830Z,12.93
2018-03-15T11:20:53.218Z,12.50
2018-03-15T11:23:20.637Z,13.17
2018-03-15T11:25:48.026Z,13.43
2018-03-15T11:28:15.433Z,12.70
2018-03-15T11:30:42.818Z,12.80
2018-03-15T11:33:10.233Z,13.13
2018-03-15T11:35:37.622Z,11.87
2018-03-15T11:38:05.006Z,12.43
2018-03-15T11:40:32.409Z,12.47
2018-03-15T11:42:59.818Z,12.80
2018-03-15T11:45:27.242Z,12.50
2018-03-15T11:47:54.660Z,12.27
2018-03-15T11:50:22.077Z,11.33
2018-03-15T11:52:49.458Z,12.30
2018-03-15T11:55:16.907Z,12.00
2018-03-15T11:57:44.254Z,11.90
2018-03-15T12:00:11.688Z,12.40
2018-03-15T12:02:39.133Z,12.40
2018-03-15T12:05:06.522Z,11.80
2018-03-15T12:07:33.941Z,12.67
2018-03-15T12:10:01.314Z,12.57
2018-03-15T12:12:28.720Z,11.40
2018-03-15T12:14:56.122Z,12.00
2018-03-15T12:17:23.513Z,10.53
2018-03-15T12:19:50.922Z,11.00
2018-03-15T12:22:18.331Z,11.10
2018-03-15T12:24:46.006Z,10.87
2018-03-15T12:27:13.467Z,11.53
2018-03-15T12:29:40.849Z,11.93
2018-03-15T12:32:08.238Z,12.30
2018-03-15T12:34:35.665Z,12.23
2018-03-15T12:37:03.085Z,12.17
2018-03-15T12:39:30.470Z,13.10
2018-03-15T12:41:57.874Z,11.40
2018-03-15T12:44:25.273Z,12.00
2018-03-15T12:46:52.720Z,11.83
2018-03-15T12:49:20.135Z,12.90
2018-03-15T12:51:47.531Z,12.80
2018-03-15T12:54:14.941Z,11.37
2018-03-15T12:56:42.338Z,11.53
2018-03-15T12:59:09.762Z,11.10
2018-03-15T13:01:37.165Z,11.90
2018-03-15T13:04:04.585Z,11.83
2018-03-15T13:06:31.974Z,12.07
2018-03-15T13:08:59.381Z,11.60
2018-03-15T13:11:26.769Z,11.80
2018-03-15T13:13:54.421Z,12.13
2018-03-15T13:16:21.870Z,12.07
2018-03-15T13:18:49.257Z,11.70
2018-03-15T13:21:16.650Z,11.00
2018-03-15T13:23:44.090Z,11.23
2018-03-15T13:26:11.463Z,11.67
2018-03-15T13:28:38.865Z,11.23
2018-03-15T13:31:06.250Z,10.53
2018-03-15T13:33:33.685Z,12.07
2018-03-15T13:36:01.084Z,12.67
2018-03-15T13:38:28.473Z,11.10
2018-03-15T13:40:55.866Z,10.90
2018-03-15T13:43:23.279Z,11.43
2018-03-15T13:45:50.678Z,11.40
2018-03-15T13:48:18.118Z,11.20
2018-03-15T13:50:45.626Z,11.40
2018-03-15T13:53:13.016Z,11.70
2018-03-15T13:55:40.426Z,11.83
2018-03-15T13:58:07.839Z,11.73
2018-03-15T14:00:35.266Z,12.13
2018-03-15T14:03:02.664Z,11.83
2018-03-15T14:05:30.045Z,11.50
2018-03-15T14:07:57.482Z,12.30
2018-03-15T14:10:24.882Z,12.00
2018-03-15T14:12:52.262Z,11.70
2018-03-15T14:15:19.660Z,12.50
2018-03-15T14:17:47.072Z,11.60
2018-03-15T14:20:14.438Z,11.57
2018-03-15T14:22:41.837Z,11.20
2018-03-15T14:25:09.229Z,11.57
2018-03-15T14:27:36.630Z,11.57
2018-03-15T14:30:04.018Z,11.70
2018-03-15T14:32:31.410Z,11.83
2018-03-15T14:34:58.815Z,11.73
2018-03-15T14:37:26.198Z,11.83
2018-03-15T14:39:53.603Z,11.67
2018-03-15T14:42:21.002Z,10.73
2018-03-15T14:44:48.407Z,10.70
2018-03-15T14:47:15.798Z,9.97
2018-03-15T14:49:43.189Z,11.50
2018-03-15T14:52:10.589Z,11.03
2018-03-15T14:54:37.977Z,11.40
2018-03-15T14:57:05.369Z,11.80
2018-03-15T14:59:32.776Z,10.43
2018-03-15T15:02:00.165Z,11.23
2018-03-15T15:04:27.938Z,10.80
2018-03-15T15:06:55.334Z,10.43
2018-03-15T15:09:22.718Z,9.83
2018-03-15T15:11:50.114Z,10.27
2018-03-15T15:14:17.506Z,11.33
2018-03-15T15:16:44.915Z,11.50
2018-03-15T15:19:12.342Z,11.00
2018-03-15T15:21:39.729Z,10.40
2018-03-15T15:24:07.474Z,10.73
2018-03-15T15:26:34.867Z,10.50
2018-03-15T15:29:02.266Z,11.20
2018-03-15T15:31:29.650Z,11.60
2018-03-15T15:33:57.108Z,11.33
2018-03-15T15:36:24.496Z,11.60
2018-03-15T15:38:51.886Z,11.27
2018-03-15T15:41:19.285Z,11.27
2018-03-15T15:43:46.679Z,11.57
2018-03-15T15:46:14.070Z,10.77
2018-03-15T15:48:41.472Z,10.90
2018-03-15T15:51:08.876Z,10.40
2018-03-15T15:53:36.326Z,10.90
2018-03-15T15:56:03.782Z,9.87
2018-03-15T15:58:31.166Z,12.03
2018-03-15T16:00:58.558Z,11.07
2018-03-15T16:03:25.960Z,10.30
2018-03-15T16:05:53.345Z,11.03
2018-03-15T16:08:20.753Z,10.53
2018-03-15T16:10:48.141Z,11.30
2018-03-15T16:13:15.573Z,10.90
2018-03-15T16:15:43.035Z,12.27
2018-03-15T16:18:10.366Z,11.43
2018-03-15T16:20:37.825Z,10.80
2018-03-15T16:23:05.150Z,10.47
2018-03-15T16:25:32.559Z,11.47
2018-03-15T16:27:59.950Z,10.70
2018-03-15T16:30:27.351Z,11.30
2018-03-15T16:32:54.786Z,11.27
2018-03-15T16:35:22.176Z,11.00
2018-03-15T16:37:49.563Z,10.23
2018-03-15T16:40:16.955Z,10.57
2018-03-15T16:42:44.354Z,10.30
2018-03-15T16:45:11.750Z,10.50
2018-03-15T16:47:39.129Z,10.30
2018-03-15T16:50:06.617Z,10.37
2018-03-15T16:52:34.018Z,10.93
2018-03-15T16:55:01.422Z,10.30
2018-03-15T16:57:28.822Z,11.73
2018-03-15T16:59:56.593Z,10.60
2018-03-15T17:02:23.994Z,11.10
2018-03-15T17:04:51.374Z,11.83
2018-03-15T17:07:18.774Z,11.43
2018-03-15T17:09:46.193Z,11.27
2018-03-15T17:12:13.598Z,10.37
2018-03-15T17:14:40.993Z,10.50
2018-03-15T17:17:08.393Z,11.97
2018-03-15T17:19:35.782Z,11.97
2018-03-15T17:22:03.177Z,12.30
2018-03-15T17:24:30.570Z,11.03
2018-03-15T17:26:57.961Z,11.10
2018-03-15T17:29:25.695Z,10.90
2018-03-15T17:31:53.086Z,10.50
2018-03-15T17:34:20.778Z,11.17
2018-03-15T17:36:48.165Z,11.70
2018-03-15T17:39:15.557Z,11.50
2018-03-15T17:41:42.958Z,11.10
2018-03-15T17:44:10.361Z,12.40
2018-03-15T17:46:37.763Z,12.00
2018-03-15T17:49:05.149Z,11.97
2018-03-15T17:51:32.573Z,11.00
2018-03-15T17:53:59.974Z,11.53
2018-03-15T17:56:28.371Z,11.80
2018-03-15T17:58:55.762Z,11.87
2018-03-15T18:01:23.151Z,10.60
2018-03-15T18:03:50.546Z,11.40
2018-03-15T18:06:17.942Z,11.40
2018-03-15T18:08:46.301Z,11.27
2018-03-15T18:11:13.693Z,11.37
2018-03-15T18:13:41.093Z,11.80
2018-03-15T18:16:08.486Z,13.10
2018-03-15T18:18:35.878Z,12.33
2018-03-15T18:21:03.286Z,12.53
2018-03-15T18:23:30.661Z,11.53
2018-03-15T18:25:58.398Z,11.27
2018-03-15T18:28:25.789Z,12.30
2018-03-15T18:30:54.198Z,11.97
2018-03-15T18:33:21.601Z,13.53
2018-03-15T18:35:48.988Z,14.50
2018-03-15T18:38:16.393Z,13.80
2018-03-15T18:40:43.786Z,13.60
2018-03-15T18:43:11.189Z,14.20
2018-03-15T18:45:38.578Z,13.90
2018-03-15T18:48:05.974Z,13.57
2018-03-15T18:50:33.372Z,13.70
2018-03-15T18:53:01.722Z,14.27
2018-03-15T18:55:29.130Z,15.13
2018-03-15T18:57:56.522Z,14.43
2018-03-15T19:00:23.926Z,15.47
2018-03-15T19:02:51.327Z,16.17
2018-03-15T19:05:18.717Z,16.37
2018-03-15T19:07:46.176Z,15.37
2018-03-15T19:10:13.514Z,16.57
2018-03-15T19:12:40.934Z,16.40
2018-03-15T19:15:08.326Z,15.50
2018-03-15T19:17:35.727Z,15.50
2018-03-15T19:20:03.130Z,15.90
2018-03-15T19:22:30.536Z,15.60
2018-03-15T19:24:57.911Z,16.53
2018-03-15T19:27:25.314Z,17.33
2018-03-15T19:29:52.700Z,15.90
2018-03-15T19:32:21.046Z,15.20
2018-03-15T19:34:48.430Z,16.00
2018-03-15T19:37:15.833Z,15.97
2018-03-15T19:39:43.213Z,16.90
2018-03-15T19:42:10.598Z,16.17
2018-03-15T19:44:37.989Z,17.10
2018-03-15T19:47:05.385Z,16.40
2018-03-15T19:49:32.785Z,17.10
2018-03-15T19:52:00.167Z,17.70
2018-03-15T19:54:27.558Z,16.47
2018-03-15T19:56:54.953Z,18.03
2018-03-15T19:59:22.341Z,18.17
2018-03-15T20:01:49.739Z,17.00
2018-03-15T20:04:17.134Z,19.63
2018-03-15T20:06:44.518Z,18.80
2018-03-15T20:09:11.911Z,17.43
2018-03-15T20:11:39.297Z,18.60
2018-03-15T20:14:06.702Z,18.30
2018-03-15T20:16:34.088Z,18.03
2018-03-15T20:19:06.990Z,18.63
2018-03-15T20:21:34.428Z,18.07
2018-03-15T20:24:07.221Z,18.10
2018-03-15T20:26:34.613Z,19.43
2018-03-15T20:29:01.998Z,19.90
2018-03-15T20:31:29.399Z,19.70
2018-03-15T20:34:03.013Z,22.00
2018-03-15T20:36:30.729Z,20.30
2018-03-15T20:38:58.134Z,19.80
2018-03-15T20:41:27.283Z,20.23
2018-03-15T20:43:54.679Z,20.43
2018-03-15T20:49:24.558Z,19.00
2018-03-15T20:51:51.970Z,19.73
2018-03-15T20:54:19.370Z,19.27
2018-03-15T20:56:46.778Z,20.13
2018-03-15T20:59:14.166Z,20.93
2018-03-15T21:01:41.563Z,20.77
2018-03-15T21:04:08.953Z,20.67
2018-03-15T21:06:36.353Z,21.87
2018-03-15T21:09:03.762Z,20.20
2018-03-15T21:11:31.157Z,19.77
2018-03-15T21:13:58.533Z,20.30
2018-03-15T21:16:25.935Z,21.10
2018-03-15T21:18:53.322Z,21.73
2018-03-15T21:21:20.710Z,21.60
2018-03-15T21:23:48.108Z,21.67
2018-03-15T21:26:15.503Z,20.77
2018-03-15T21:28:42.873Z,20.90
2018-03-15T21:31:10.347Z,21.33
2018-03-15T21:33:37.737Z,21.07
2018-03-15T21:36:05.174Z,21.07
2018-03-15T21:38:32.658Z,21.60
2018-03-15T21:41:00.051Z,21.13
2018-03-15T21:43:27.450Z,21.60
2018-03-15T21:45:54.842Z,21.63
2018-03-15T21:48:22.230Z,21.27
2018-03-15T21:50:49.620Z,21.83
2018-03-15T21:53:17.005Z,20.87
2018-03-15T21:55:44.410Z,19.67
2018-03-15T21:58:11.868Z,22.37
2018-03-15T22:00:39.301Z,21.93
2018-03-15T22:03:06.706Z,21.70
2018-03-15T22:05:34.097Z,23.30
2018-03-15T22:08:01.492Z,21.97
2018-03-15T22:10:28.873Z,21.53
2018-03-15T22:12:56.294Z,22.03
2018-03-15T22:15:23.676Z,22.00
2018-03-15T22:17:51.066Z,21.73
2018-03-15T22:20:18.458Z,22.80
2018-03-15T22:22:45.842Z,22.77
2018-03-15T22:25:13.254Z,23.10
2018-03-15T22:27:40.649Z,23.30
2018-03-15T22:30:08.549Z,23.07
2018-03-15T22:32:35.946Z,22.73
2018-03-15T22:35:03.385Z,23.20
2018-03-15T22:37:30.802Z,22.50
2018-03-15T22:39:58.182Z,21.60
2018-03-15T22:42:25.566Z,22.53
2018-03-15T22:44:52.963Z,23.17
2018-03-15T22:47:20.346Z,22.83
2018-03-15T22:49:47.752Z,23.50
2018-03-15T22:52:15.130Z,24.63
2018-03-15T22:54:42.516Z,23.37
2018-03-15T22:57:09.901Z,22.90
2018-03-15T22:59:37.287Z,23.20
2018-03-15T23:02:04.682Z,23.53
2018-03-15T23:04:32.074Z,23.23
2018-03-15T23:06:59.461Z,23.07
2018-03-15T23:09:26.869Z,23.00
2018-03-15T23:11:54.254Z,23.17
2018-03-15T23:14:21.654Z,22.60
2018-03-15T23:16:49.035Z,23.27
2018-03-15T23:19:16.421Z,24.07
2018-03-15T23:21:43.813Z,24.27
2018-03-15T23:24:11.206Z,23.53
2018-03-15T23:26:38.604Z,22.80
2018-03-15T23:29:05.981Z,23.57
2018-03-15T23:31:33.369Z,23.60
2018-03-15T23:34:00.761Z,24.77
2018-03-15T23:36:28.145Z,25.20
2018-03-15T23:38:55.543Z,25.73
2018-03-15T23:41:22.923Z,26.60
2018-03-15T23:43:50.304Z,25.40
2018-03-15T23:46:17.701Z,25.00
2018-03-15T23:48:45.077Z,24.90
2018-03-15T23:51:12.473Z,25.90
2018-03-15T23:53:39.857Z,25.37
2018-03-15T23:56:07.245Z,25.93
2018-03-15T23:58:34.637Z,26.90
